sensor_id;sensor_type;location;lat;lon;timestamp;pressure;altitude;pressure_sealevel;temperature;humidity
76285;BME280;71676;50.998;7.098;2024-01-30T00:00:00;102181.03;;;7.64;59.70
76285;BME280;71676;50.998;7.098;2024-01-30T00:02:28;102177.81;;;7.69;59.07
76285;BME280;71676;50.998;7.098;2024-01-30T00:04:54;102180.28;;;7.66;59.34
76285;BME280;71676;50.998;7.098;2024-01-30T00:07:21;102169.94;;;7.65;59.28
76285;BME280;71676;50.998;7.098;2024-01-30T00:09:47;102174.56;;;7.53;60.94
76285;BME280;71676;50.998;7.098;2024-01-30T00:12:14;102166.78;;;7.51;59.91
76285;BME280;71676;50.998;7.098;2024-01-30T00:14:41;102162.53;;;7.31;61.29
76285;BME280;71676;50.998;7.098;2024-01-30T00:17:09;102160.22;;;7.37;60.51
76285;BME280;71676;50.998;7.098;2024-01-30T00:19:36;102166.16;;;7.36;61.54
76285;BME280;71676;50.998;7.098;2024-01-30T00:22:03;102156.63;;;7.34;60.85
76285;BME280;71676;50.998;7.098;2024-01-30T00:24:29;102155.06;;;7.37;60.43
76285;BME280;71676;50.998;7.098;2024-01-30T00:26:56;102158.66;;;7.41;60.46
76285;BME280;71676;50.998;7.098;2024-01-30T00:29:23;102159.19;;;7.34;61.41
76285;BME280;71676;50.998;7.098;2024-01-30T00:31:51;102156.25;;;7.25;61.62
76285;BME280;71676;50.998;7.098;2024-01-30T00:34:19;102157.50;;;7.14;61.70
76285;BME280;71676;50.998;7.098;2024-01-30T00:36:46;102161.97;;;7.19;61.81
76285;BME280;71676;50.998;7.098;2024-01-30T00:39:12;102160.13;;;7.15;61.80
76285;BME280;71676;50.998;7.098;2024-01-30T00:41:41;102157.28;;;7.09;62.15
76285;BME280;71676;50.998;7.098;2024-01-30T00:44:07;102153.91;;;7.10;62.44
76285;BME280;71676;50.998;7.098;2024-01-30T00:46:34;102149.91;;;7.17;61.57
76285;BME280;71676;50.998;7.098;2024-01-30T00:49:00;102152.88;;;7.26;61.13
76285;BME280;71676;50.998;7.098;2024-01-30T00:51:29;102155.06;;;7.37;60.77
76285;BME280;71676;50.998;7.098;2024-01-30T00:53:56;102151.19;;;7.26;61.40
76285;BME280;71676;50.998;7.098;2024-01-30T00:56:22;102149.06;;;7.37;60.89
76285;BME280;71676;50.998;7.098;2024-01-30T00:58:49;102149.44;;;7.25;60.94
76285;BME280;71676;50.998;7.098;2024-01-30T01:01:16;102147.13;;;7.31;61.32
76285;BME280;71676;50.998;7.098;2024-01-30T01:03:43;102152.44;;;7.36;60.60
76285;BME280;71676;50.998;7.098;2024-01-30T01:06:11;102149.88;;;7.36;60.56
76285;BME280;71676;50.998;7.098;2024-01-30T01:08:39;102149.88;;;7.36;61.30
76285;BME280;71676;50.998;7.098;2024-01-30T01:11:06;102147.13;;;7.31;60.75
76285;BME280;71676;50.998;7.098;2024-01-30T01:13:32;102148.69;;;7.28;61.34
76285;BME280;71676;50.998;7.098;2024-01-30T01:15:59;102146.81;;;7.24;61.64
76285;BME280;71676;50.998;7.098;2024-01-30T01:18:26;102146.41;;;7.15;62.01
76285;BME280;71676;50.998;7.098;2024-01-30T01:20:53;102145.97;;;7.04;62.22
76285;BME280;71676;50.998;7.098;2024-01-30T01:23:19;102145.03;;;7.23;62.03
76285;BME280;71676;50.998;7.098;2024-01-30T01:25:47;102145.56;;;7.14;61.85
76285;BME280;71676;50.998;7.098;2024-01-30T01:28:14;102145.88;;;7.22;62.02
76285;BME280;71676;50.998;7.098;2024-01-30T01:30:40;102144.47;;;7.09;62.19
76285;BME280;71676;50.998;7.098;2024-01-30T01:33:07;102146.03;;;7.06;62.26
76285;BME280;71676;50.998;7.098;2024-01-30T01:35:34;102143.91;;;7.16;62.17
76285;BME280;71676;50.998;7.098;2024-01-30T01:38:01;102142.09;;;7.14;62.58
76285;BME280;71676;50.998;7.098;2024-01-30T01:40:28;102150.38;;;7.08;62.55
76285;BME280;71676;50.998;7.098;2024-01-30T01:42:56;102145.63;;;7.16;62.56
76285;BME280;71676;50.998;7.098;2024-01-30T01:45:22;102144.03;;;7.19;62.02
76285;BME280;71676;50.998;7.098;2024-01-30T01:47:51;102149.44;;;7.25;61.72
76285;BME280;71676;50.998;7.098;2024-01-30T01:50:18;102145.44;;;7.32;61.05
76285;BME280;71676;50.998;7.098;2024-01-30T01:52:47;102143.69;;;7.31;61.39
76285;BME280;71676;50.998;7.098;2024-01-30T01:55:16;102144.81;;;7.37;61.04
76285;BME280;71676;50.998;7.098;2024-01-30T01:57:43;102143.88;;;7.35;61.06
76285;BME280;71676;50.998;7.098;2024-01-30T02:00:12;102143.31;;;7.42;60.63
76285;BME280;71676;50.998;7.098;2024-01-30T02:02:41;102141.63;;;7.43;60.71
76285;BME280;71676;50.998;7.098;2024-01-30T02:05:10;102141.06;;;7.50;60.39
76285;BME280;71676;50.998;7.098;2024-01-30T02:07:36;102125.47;;;7.45;60.34
76285;BME280;71676;50.998;7.098;2024-01-30T02:10:04;102136.50;;;7.43;61.08
76285;BME280;71676;50.998;7.098;2024-01-30T02:12:31;102133.94;;;7.43;60.72
76285;BME280;71676;50.998;7.098;2024-01-30T02:14:57;102131.81;;;7.53;60.34
76285;BME280;71676;50.998;7.098;2024-01-30T02:17:25;102130.78;;;7.50;60.32
76285;BME280;71676;50.998;7.098;2024-01-30T02:19:52;102128.50;;;7.56;60.12
76285;BME280;71676;50.998;7.098;2024-01-30T02:22:20;102126.00;;;7.57;60.01
76285;BME280;71676;50.998;7.098;2024-01-30T02:24:47;102127.69;;;7.57;60.37
76285;BME280;71676;50.998;7.098;2024-01-30T02:27:14;102118.28;;;7.57;59.93
76285;BME280;71676;50.998;7.098;2024-01-30T02:29:40;102129.53;;;7.61;60.06
76285;BME280;71676;50.998;7.098;2024-01-30T02:32:06;102125.41;;;7.64;59.79
76285;BME280;71676;50.998;7.098;2024-01-30T02:34:33;102124.56;;;7.64;59.83
76285;BME280;71676;50.998;7.098;2024-01-30T02:37:00;102127.13;;;7.64;60.03
76285;BME280;71676;50.998;7.098;2024-01-30T02:39:28;102127.38;;;7.70;59.80
76285;BME280;71676;50.998;7.098;2024-01-30T02:41:54;102107.63;;;7.69;59.76
76285;BME280;71676;50.998;7.098;2024-01-30T02:44:22;102118.25;;;7.77;59.53
76285;BME280;71676;50.998;7.098;2024-01-30T02:46:48;102123.28;;;7.73;59.21
76285;BME280;71676;50.998;7.098;2024-01-30T02:49:15;102123.97;;;7.71;59.26
76285;BME280;71676;50.998;7.098;2024-01-30T02:51:42;102123.34;;;7.75;59.48
76285;BME280;71676;50.998;7.098;2024-01-30T02:54:08;102114.53;;;7.70;59.40
76285;BME280;71676;50.998;7.098;2024-01-30T02:56:36;102117.16;;;7.71;59.61
76285;BME280;71676;50.998;7.098;2024-01-30T02:59:03;102115.44;;;7.72;59.30
76285;BME280;71676;50.998;7.098;2024-01-30T03:01:29;102107.63;;;7.69;59.55
76285;BME280;71676;50.998;7.098;2024-01-30T03:03:57;102111.91;;;7.68;59.52
76285;BME280;71676;50.998;7.098;2024-01-30T03:06:22;102106.72;;;7.67;59.64
76285;BME280;71676;50.998;7.098;2024-01-30T03:08:49;102103.19;;;7.65;59.79
76285;BME280;71676;50.998;7.098;2024-01-30T03:11:16;102103.00;;;7.60;59.87
76285;BME280;71676;50.998;7.098;2024-01-30T03:13:44;102099.50;;;7.58;59.82
76285;BME280;71676;50.998;7.098;2024-01-30T03:16:10;102102.75;;;7.54;60.16
76285;BME280;71676;50.998;7.098;2024-01-30T03:18:37;102101.00;;;7.53;60.12
76285;BME280;71676;50.998;7.098;2024-01-30T03:21:04;102102.31;;;7.44;60.13
76285;BME280;71676;50.998;7.098;2024-01-30T03:23:30;102095.00;;;7.32;60.88
76285;BME280;71676;50.998;7.098;2024-01-30T03:26:00;102095.88;;;7.33;60.62
76285;BME280;71676;50.998;7.098;2024-01-30T03:28:26;102096.53;;;7.29;60.77
76285;BME280;71676;50.998;7.098;2024-01-30T03:30:53;102091.41;;;7.29;61.61
76285;BME280;71676;50.998;7.098;2024-01-30T03:33:20;102092.88;;;7.22;61.05
76285;BME280;71676;50.998;7.098;2024-01-30T03:35:46;102036.28;;;6.99;61.02
76285;BME280;71676;50.998;7.098;2024-01-30T03:38:13;102082.22;;;7.34;60.58
76285;BME280;71676;50.998;7.098;2024-01-30T03:40:40;102081.56;;;7.38;60.75
76285;BME280;71676;50.998;7.098;2024-01-30T03:43:07;102089.53;;;7.45;60.92
76285;BME280;71676;50.998;7.098;2024-01-30T03:45:33;102087.63;;;7.40;60.51
76285;BME280;71676;50.998;7.098;2024-01-30T03:48:01;102090.56;;;7.28;61.42
76285;BME280;71676;50.998;7.098;2024-01-30T03:50:28;102083.94;;;7.33;60.95
76285;BME280;71676;50.998;7.098;2024-01-30T03:52:55;102082.28;;;7.35;60.74
76285;BME280;71676;50.998;7.098;2024-01-30T03:55:21;102091.81;;;7.38;60.63
76285;BME280;71676;50.998;7.098;2024-01-30T03:57:48;102088.28;;;7.15;61.87
76285;BME280;71676;50.998;7.098;2024-01-30T04:00:25;102084.06;;;7.16;61.74
76285;BME280;71676;50.998;7.098;2024-01-30T04:03:41;102085.78;;;7.17;61.97
76285;BME280;71676;50.998;7.098;2024-01-30T04:06:36;102085.34;;;6.87;63.09
76285;BME280;71676;50.998;7.098;2024-01-30T04:12:43;102078.16;;;6.79;63.59
76285;BME280;71676;50.998;7.098;2024-01-30T04:15:29;102077.28;;;6.78;63.27
76285;BME280;71676;50.998;7.098;2024-01-30T04:18:31;102080.16;;;6.86;63.24
76285;BME280;71676;50.998;7.098;2024-01-30T04:21:45;102076.38;;;6.78;63.93
76285;BME280;71676;50.998;7.098;2024-01-30T04:24:26;102071.50;;;6.82;62.97
76285;BME280;71676;50.998;7.098;2024-01-30T04:27:25;102070.47;;;6.79;63.16
76285;BME280;71676;50.998;7.098;2024-01-30T04:30:10;102068.69;;;6.97;62.68
76285;BME280;71676;50.998;7.098;2024-01-30T04:35:51;102075.44;;;6.95;62.58
76285;BME280;71676;50.998;7.098;2024-01-30T04:39:05;102072.28;;;6.81;63.81
76285;BME280;71676;50.998;7.098;2024-01-30T04:41:43;102068.94;;;6.63;64.17
76285;BME280;71676;50.998;7.098;2024-01-30T04:44:36;102070.00;;;6.68;63.67
76285;BME280;71676;50.998;7.098;2024-01-30T04:50:39;102068.06;;;6.63;64.29
76285;BME280;71676;50.998;7.098;2024-01-30T04:53:37;102073.78;;;6.57;64.59
76285;BME280;71676;50.998;7.098;2024-01-30T04:56:57;102076.75;;;6.66;64.21
76285;BME280;71676;50.998;7.098;2024-01-30T04:59:57;102073.25;;;6.64;64.29
76285;BME280;71676;50.998;7.098;2024-01-30T05:03:01;102073.56;;;6.53;64.46
76285;BME280;71676;50.998;7.098;2024-01-30T05:05:56;102079.47;;;6.50;64.27
76285;BME280;71676;50.998;7.098;2024-01-30T05:10:21;102078.38;;;6.64;63.77
76285;BME280;71676;50.998;7.098;2024-01-30T05:12:13;102083.16;;;6.76;63.68
76285;BME280;71676;50.998;7.098;2024-01-30T05:15:10;102084.72;;;6.72;63.61
76285;BME280;71676;50.998;7.098;2024-01-30T05:18:03;102085.81;;;6.58;64.43
76285;BME280;71676;50.998;7.098;2024-01-30T05:23:25;102080.53;;;6.55;64.00
76285;BME280;71676;50.998;7.098;2024-01-30T05:25:18;102076.34;;;6.57;64.15
76285;BME280;71676;50.998;7.098;2024-01-30T06:03:59;102076.13;;;6.33;64.88
76285;BME280;71676;50.998;7.098;2024-01-30T06:07:03;102071.91;;;6.34;65.22
76285;BME280;71676;50.998;7.098;2024-01-30T06:13:51;102073.44;;;6.30;65.50
76285;BME280;71676;50.998;7.098;2024-01-30T06:26:56;102067.03;;;6.40;65.03
76285;BME280;71676;50.998;7.098;2024-01-30T06:35:53;102073.38;;;6.29;65.59
76285;BME280;71676;50.998;7.098;2024-01-30T06:57:44;102054.47;;;6.27;66.37
76285;BME280;71676;50.998;7.098;2024-01-30T07:00:32;102046.41;;;6.18;66.37
76285;BME280;71676;50.998;7.098;2024-01-30T07:03:46;102047.69;;;6.27;66.12
76285;BME280;71676;50.998;7.098;2024-01-30T07:07:14;102052.13;;;6.51;65.29
76285;BME280;71676;50.998;7.098;2024-01-30T07:10:28;102052.41;;;6.57;64.91
76285;BME280;71676;50.998;7.098;2024-01-30T07:23:04;102069.47;;;6.37;66.03
76285;BME280;71676;50.998;7.098;2024-01-30T07:29:06;102084.22;;;6.43;65.70
76285;BME280;71676;50.998;7.098;2024-01-30T07:31:39;102087.16;;;6.50;65.61
76285;BME280;71676;50.998;7.098;2024-01-30T07:34:20;102076.19;;;6.35;65.94
76285;BME280;71676;50.998;7.098;2024-01-30T07:36:47;102085.16;;;6.45;65.67
76285;BME280;71676;50.998;7.098;2024-01-30T07:39:15;102080.44;;;6.54;65.42
76285;BME280;71676;50.998;7.098;2024-01-30T07:41:41;102083.22;;;6.39;65.92
76285;BME280;71676;50.998;7.098;2024-01-30T07:44:08;102080.53;;;6.55;65.22
76285;BME280;71676;50.998;7.098;2024-01-30T07:46:34;102089.22;;;6.40;65.62
76285;BME280;71676;50.998;7.098;2024-01-30T07:49:01;102088.63;;;6.45;65.83
76285;BME280;71676;50.998;7.098;2024-01-30T07:51:28;102096.97;;;6.41;65.67
76285;BME280;71676;50.998;7.098;2024-01-30T07:53:57;102096.28;;;6.26;66.31
76285;BME280;71676;50.998;7.098;2024-01-30T07:56:25;102096.09;;;6.21;66.67
76285;BME280;71676;50.998;7.098;2024-01-30T07:58:51;102087.59;;;6.42;66.15
76285;BME280;71676;50.998;7.098;2024-01-30T08:01:18;102062.38;;;6.31;65.75
76285;BME280;71676;50.998;7.098;2024-01-30T08:03:45;102094.63;;;6.65;65.29
76285;BME280;71676;50.998;7.098;2024-01-30T08:06:11;102071.00;;;6.33;65.78
76285;BME280;71676;50.998;7.098;2024-01-30T08:08:38;102086.25;;;6.69;64.90
76285;BME280;71676;50.998;7.098;2024-01-30T08:11:05;102080.59;;;6.57;65.02
76285;BME280;71676;50.998;7.098;2024-01-30T08:13:34;102099.81;;;6.66;65.18
76285;BME280;71676;50.998;7.098;2024-01-30T08:16:00;102103.38;;;6.70;65.29
76285;BME280;71676;50.998;7.098;2024-01-30T08:18:27;102097.06;;;6.81;65.07
76285;BME280;71676;50.998;7.098;2024-01-30T08:20:54;102104.31;;;6.91;65.29
76285;BME280;71676;50.998;7.098;2024-01-30T08:23:20;102097.97;;;6.83;65.44
76285;BME280;71676;50.998;7.098;2024-01-30T08:25:47;102089.63;;;6.87;65.29
76285;BME280;71676;50.998;7.098;2024-01-30T08:28:14;102088.66;;;6.85;65.57
76285;BME280;71676;50.998;7.098;2024-01-30T08:30:42;102096.69;;;6.73;66.03
76285;BME280;71676;50.998;7.098;2024-01-30T08:33:08;102095.28;;;6.80;65.38
76285;BME280;71676;50.998;7.098;2024-01-30T08:35:35;102081.38;;;6.94;65.15
76285;BME280;71676;50.998;7.098;2024-01-30T08:38:01;102075.16;;;7.08;65.15
76285;BME280;71676;50.998;7.098;2024-01-30T08:40:29;102076.53;;;7.20;64.47
76285;BME280;71676;50.998;7.098;2024-01-30T08:42:56;102077.09;;;7.13;65.34
76285;BME280;71676;50.998;7.098;2024-01-30T08:45:22;102079.81;;;6.97;65.29
76285;BME280;71676;50.998;7.098;2024-01-30T08:47:50;102090.72;;;7.12;65.02
76285;BME280;71676;50.998;7.098;2024-01-30T08:50:17;102092.00;;;7.22;64.74
76285;BME280;71676;50.998;7.098;2024-01-30T08:52:44;102094.25;;;7.14;64.94
76285;BME280;71676;50.998;7.098;2024-01-30T08:55:10;102101.38;;;7.21;65.13
76285;BME280;71676;50.998;7.098;2024-01-30T08:57:37;102100.94;;;7.31;64.87
76285;BME280;71676;50.998;7.098;2024-01-30T09:00:05;102117.78;;;7.25;64.63
76285;BME280;71676;50.998;7.098;2024-01-30T09:02:34;102110.03;;;7.44;63.91
76285;BME280;71676;50.998;7.098;2024-01-30T09:05:02;102108.94;;;7.18;64.29
76285;BME280;71676;50.998;7.098;2024-01-30T09:07:29;102114.81;;;7.16;64.20
76285;BME280;71676;50.998;7.098;2024-01-30T09:09:55;102116.81;;;7.23;64.12
76285;BME280;71676;50.998;7.098;2024-01-30T09:12:22;102114.38;;;7.26;64.61
76285;BME280;71676;50.998;7.098;2024-01-30T09:14:49;102120.53;;;7.29;64.11
76285;BME280;71676;50.998;7.098;2024-01-30T09:17:16;102124.75;;;7.29;64.26
76285;BME280;71676;50.998;7.098;2024-01-30T09:19:42;102129.78;;;7.26;63.82
76285;BME280;71676;50.998;7.098;2024-01-30T09:22:10;102123.22;;;7.53;63.92
76285;BME280;71676;50.998;7.098;2024-01-30T09:24:37;102119.63;;;7.29;63.75
76285;BME280;71676;50.998;7.098;2024-01-30T09:27:04;102134.81;;;7.64;63.62
76285;BME280;71676;50.998;7.098;2024-01-30T09:29:31;102116.47;;;7.55;63.36
76285;BME280;71676;50.998;7.098;2024-01-30T09:31:59;102129.50;;;7.80;62.89
76285;BME280;71676;50.998;7.098;2024-01-30T09:34:26;102143.91;;;7.97;62.59
76285;BME280;71676;50.998;7.098;2024-01-30T09:36:52;102141.13;;;7.72;62.82
76285;BME280;71676;50.998;7.098;2024-01-30T09:39:21;102151.25;;;7.69;63.07
76285;BME280;71676;50.998;7.098;2024-01-30T09:41:49;102139.28;;;7.89;62.52
76285;BME280;71676;50.998;7.098;2024-01-30T09:44:16;102138.50;;;8.12;62.47
76285;BME280;71676;50.998;7.098;2024-01-30T09:46:46;102144.13;;;8.03;62.07
76285;BME280;71676;50.998;7.098;2024-01-30T09:49:13;102151.63;;;7.97;62.23
76285;BME280;71676;50.998;7.098;2024-01-30T09:51:40;102147.09;;;8.14;61.67
76285;BME280;71676;50.998;7.098;2024-01-30T09:54:08;102151.06;;;8.26;61.80
76285;BME280;71676;50.998;7.098;2024-01-30T09:56:37;102155.09;;;8.20;61.94
76285;BME280;71676;50.998;7.098;2024-01-30T09:59:04;102154.47;;;8.27;61.47
76285;BME280;71676;50.998;7.098;2024-01-30T10:01:31;102157.00;;;8.25;61.47
76285;BME280;71676;50.998;7.098;2024-01-30T10:03:58;102148.59;;;8.29;61.45
76285;BME280;71676;50.998;7.098;2024-01-30T10:06:24;102154.31;;;8.44;61.52
76285;BME280;71676;50.998;7.098;2024-01-30T10:08:51;102155.75;;;8.38;61.00
76285;BME280;71676;50.998;7.098;2024-01-30T10:11:17;102166.69;;;8.54;61.40
76285;BME280;71676;50.998;7.098;2024-01-30T10:13:45;102108.94;;;8.23;61.13
76285;BME280;71676;50.998;7.098;2024-01-30T10:16:14;102152.28;;;8.81;60.64
76285;BME280;71676;50.998;7.098;2024-01-30T10:18:41;102160.44;;;8.93;60.58
76285;BME280;71676;50.998;7.098;2024-01-30T10:21:08;102162.09;;;9.15;59.41
76285;BME280;71676;50.998;7.098;2024-01-30T10:23:35;102155.47;;;9.22;59.45
76285;BME280;71676;50.998;7.098;2024-01-30T10:26:02;102152.06;;;9.46;60.11
76285;BME280;71676;50.998;7.098;2024-01-30T10:28:30;102140.63;;;9.38;58.45
76285;BME280;71676;50.998;7.098;2024-01-30T10:31:01;102155.38;;;9.44;58.82
76285;BME280;71676;50.998;7.098;2024-01-30T10:33:29;102138.50;;;9.52;58.67
76285;BME280;71676;50.998;7.098;2024-01-30T10:35:59;102153.81;;;9.74;59.20
76285;BME280;71676;50.998;7.098;2024-01-30T10:38:29;102149.97;;;9.86;58.86
76285;BME280;71676;50.998;7.098;2024-01-30T10:40:57;102154.41;;;9.65;58.09
76285;BME280;71676;50.998;7.098;2024-01-30T10:43:28;102155.06;;;9.85;57.91
76285;BME280;71676;50.998;7.098;2024-01-30T10:45:57;102151.38;;;9.77;57.20
76285;BME280;71676;50.998;7.098;2024-01-30T10:48:29;102149.56;;;9.49;58.14
76285;BME280;71676;50.998;7.098;2024-01-30T10:50:59;102146.47;;;9.34;58.29
76285;BME280;71676;50.998;7.098;2024-01-30T10:53:27;102151.31;;;9.50;59.02
76285;BME280;71676;50.998;7.098;2024-01-30T10:55:54;102141.75;;;9.46;58.28
76285;BME280;71676;50.998;7.098;2024-01-30T10:58:22;102146.41;;;9.33;58.92
76285;BME280;71676;50.998;7.098;2024-01-30T11:00:49;102147.25;;;9.32;58.77
76285;BME280;71676;50.998;7.098;2024-01-30T11:03:17;102147.94;;;9.51;59.20
76285;BME280;71676;50.998;7.098;2024-01-30T11:05:50;102137.38;;;9.69;59.00
76285;BME280;71676;50.998;7.098;2024-01-30T11:08:23;102136.56;;;9.45;58.77
76285;BME280;71676;50.998;7.098;2024-01-30T11:10:55;102122.66;;;9.66;58.83
76285;BME280;71676;50.998;7.098;2024-01-30T11:13:22;102132.31;;;9.47;58.88
76285;BME280;71676;50.998;7.098;2024-01-30T11:15:48;102126.34;;;9.48;59.14
76285;BME280;71676;50.998;7.098;2024-01-30T11:18:22;102120.09;;;9.66;58.57
76285;BME280;71676;50.998;7.098;2024-01-30T11:20:51;102124.16;;;9.60;58.95
76285;BME280;71676;50.998;7.098;2024-01-30T11:23:17;102132.72;;;9.59;58.62
76285;BME280;71676;50.998;7.098;2024-01-30T11:25:44;102137.19;;;9.64;58.90
76285;BME280;71676;50.998;7.098;2024-01-30T11:28:14;102139.72;;;9.63;58.72
76285;BME280;71676;50.998;7.098;2024-01-30T11:30:42;102142.81;;;9.78;58.80
76285;BME280;71676;50.998;7.098;2024-01-30T11:33:11;102132.69;;;9.84;58.41
76285;BME280;71676;50.998;7.098;2024-01-30T11:35:39;102136.28;;;9.62;59.03
76285;BME280;71676;50.998;7.098;2024-01-30T11:38:09;102131.78;;;9.57;59.31
76285;BME280;71676;50.998;7.098;2024-01-30T11:40:37;102127.53;;;9.84;58.81
76285;BME280;71676;50.998;7.098;2024-01-30T11:43:05;102127.19;;;10.00;58.92
76285;BME280;71676;50.998;7.098;2024-01-30T11:45:33;102126.06;;;10.18;58.41
76285;BME280;71676;50.998;7.098;2024-01-30T11:48:01;102126.63;;;10.36;58.32
76285;BME280;71676;50.998;7.098;2024-01-30T11:50:29;102126.13;;;10.48;57.88
76285;BME280;71676;50.998;7.098;2024-01-30T11:52:55;102117.41;;;10.44;57.73
76285;BME280;71676;50.998;7.098;2024-01-30T11:55:24;102110.47;;;10.42;57.51
76285;BME280;71676;50.998;7.098;2024-01-30T11:57:51;102114.41;;;10.59;57.66
76285;BME280;71676;50.998;7.098;2024-01-30T12:00:18;102119.59;;;10.60;57.75
76285;BME280;71676;50.998;7.098;2024-01-30T12:02:49;102125.13;;;10.73;57.61
76285;BME280;71676;50.998;7.098;2024-01-30T12:05:18;102134.41;;;10.66;56.97
76285;BME280;71676;50.998;7.098;2024-01-30T12:07:45;102135.53;;;10.47;57.11
76285;BME280;71676;50.998;7.098;2024-01-30T12:10:12;102128.88;;;10.54;57.68
76285;BME280;71676;50.998;7.098;2024-01-30T12:12:44;102124.25;;;10.72;57.86
76285;BME280;71676;50.998;7.098;2024-01-30T12:15:11;102114.69;;;10.68;57.01
76285;BME280;71676;50.998;7.098;2024-01-30T12:17:38;102123.91;;;10.60;57.28
76285;BME280;71676;50.998;7.098;2024-01-30T12:20:05;102125.75;;;10.66;57.76
76285;BME280;71676;50.998;7.098;2024-01-30T12:22:35;102120.81;;;10.73;57.57
76285;BME280;71676;50.998;7.098;2024-01-30T12:25:04;102127.06;;;10.81;57.41
76285;BME280;71676;50.998;7.098;2024-01-30T12:27:31;102128.00;;;10.83;57.15
76285;BME280;71676;50.998;7.098;2024-01-30T12:29:59;102123.00;;;10.89;56.07
76285;BME280;71676;50.998;7.098;2024-01-30T12:32:25;102129.28;;;10.68;56.28
76285;BME280;71676;50.998;7.098;2024-01-30T12:34:55;102128.59;;;10.75;57.23
76285;BME280;71676;50.998;7.098;2024-01-30T12:37:22;102127.06;;;10.81;57.10
76285;BME280;71676;50.998;7.098;2024-01-30T12:39:51;102127.50;;;10.96;57.14
76285;BME280;71676;50.998;7.098;2024-01-30T12:42:19;102125.03;;;11.01;56.76
76285;BME280;71676;50.998;7.098;2024-01-30T12:44:47;102129.53;;;11.08;56.81
76285;BME280;71676;50.998;7.098;2024-01-30T12:47:15;102136.47;;;11.10;55.42
76285;BME280;71676;50.998;7.098;2024-01-30T12:49:42;102138.44;;;11.19;55.62
76285;BME280;71676;50.998;7.098;2024-01-30T12:52:10;102133.28;;;11.19;54.86
76285;BME280;71676;50.998;7.098;2024-01-30T12:54:37;102106.41;;;11.12;55.59
76285;BME280;71676;50.998;7.098;2024-01-30T12:57:04;102137.72;;;11.24;55.21
76285;BME280;71676;50.998;7.098;2024-01-30T12:59:31;102124.91;;;11.27;54.95
76285;BME280;71676;50.998;7.098;2024-01-30T13:02:00;102126.31;;;11.16;55.58
76285;BME280;71676;50.998;7.098;2024-01-30T13:04:28;102136.75;;;11.19;56.29
76285;BME280;71676;50.998;7.098;2024-01-30T13:06:55;102142.53;;;11.11;55.51
76285;BME280;71676;50.998;7.098;2024-01-30T13:09:23;102136.94;;;10.96;56.56
76285;BME280;71676;50.998;7.098;2024-01-30T13:11:49;102145.06;;;11.09;56.59
76285;BME280;71676;50.998;7.098;2024-01-30T13:14:16;102118.22;;;11.03;55.19
76285;BME280;71676;50.998;7.098;2024-01-30T13:16:43;102137.75;;;11.26;56.42
76285;BME280;71676;50.998;7.098;2024-01-30T13:19:10;102147.78;;;11.46;55.37
76285;BME280;71676;50.998;7.098;2024-01-30T13:21:38;102152.34;;;11.56;54.88
76285;BME280;71676;50.998;7.098;2024-01-30T13:24:06;102157.69;;;11.62;55.16
76285;BME280;71676;50.998;7.098;2024-01-30T13:26:32;102160.44;;;11.68;55.22
76285;BME280;71676;50.998;7.098;2024-01-30T13:28:59;102157.03;;;11.71;54.79
76285;BME280;71676;50.998;7.098;2024-01-30T13:31:26;102153.75;;;11.76;54.27
76285;BME280;71676;50.998;7.098;2024-01-30T13:33:53;102158.91;;;11.76;54.34
76285;BME280;71676;50.998;7.098;2024-01-30T13:36:20;102158.09;;;11.79;54.67
76285;BME280;71676;50.998;7.098;2024-01-30T13:38:48;102153.75;;;11.76;54.50
76285;BME280;71676;50.998;7.098;2024-01-30T13:41:15;102155.88;;;11.58;55.09
76285;BME280;71676;50.998;7.098;2024-01-30T13:43:43;102166.22;;;11.60;55.30
76285;BME280;71676;50.998;7.098;2024-01-30T13:46:10;102167.25;;;11.66;55.65
76285;BME280;71676;50.998;7.098;2024-01-30T13:48:36;102168.22;;;11.70;54.87
76285;BME280;71676;50.998;7.098;2024-01-30T13:51:03;102155.94;;;11.61;55.81
76285;BME280;71676;50.998;7.098;2024-01-30T13:53:31;102161.88;;;11.57;55.72
76285;BME280;71676;50.998;7.098;2024-01-30T13:55:59;102165.63;;;11.70;55.94
76285;BME280;71676;50.998;7.098;2024-01-30T13:58:26;102167.13;;;11.60;56.15
76285;BME280;71676;50.998;7.098;2024-01-30T14:00:52;102164.56;;;11.62;55.43
76285;BME280;71676;50.998;7.098;2024-01-30T14:03:19;102167.06;;;11.59;55.79
76285;BME280;71676;50.998;7.098;2024-01-30T14:05:46;102157.28;;;11.47;56.50
76285;BME280;71676;50.998;7.098;2024-01-30T14:08:12;102168.72;;;11.55;56.09
76285;BME280;71676;50.998;7.098;2024-01-30T14:10:39;102166.22;;;11.60;56.08
76285;BME280;71676;50.998;7.098;2024-01-30T14:13:07;102169.47;;;11.51;56.06
76285;BME280;71676;50.998;7.098;2024-01-30T14:15:34;102170.16;;;11.46;56.35
76285;BME280;71676;50.998;7.098;2024-01-30T14:18:00;102177.63;;;11.35;57.05
76285;BME280;71676;50.998;7.098;2024-01-30T14:20:27;102182.28;;;11.48;56.96
76285;BME280;71676;50.998;7.098;2024-01-30T14:22:54;102172.63;;;11.41;57.28
76285;BME280;71676;50.998;7.098;2024-01-30T14:25:20;102172.56;;;11.40;57.51
76285;BME280;71676;50.998;7.098;2024-01-30T14:27:49;102173.09;;;11.27;58.06
76285;BME280;71676;50.998;7.098;2024-01-30T14:30:17;102160.03;;;11.21;57.70
76285;BME280;71676;50.998;7.098;2024-01-30T14:32:47;102170.28;;;11.18;58.43
76285;BME280;71676;50.998;7.098;2024-01-30T14:35:14;102173.03;;;11.25;58.26
76285;BME280;71676;50.998;7.098;2024-01-30T14:37:41;102159.22;;;11.23;58.12
76285;BME280;71676;50.998;7.098;2024-01-30T14:40:08;102169.56;;;11.25;58.21
76285;BME280;71676;50.998;7.098;2024-01-30T14:42:35;102176.31;;;11.20;58.63
76285;BME280;71676;50.998;7.098;2024-01-30T14:45:03;102172.03;;;11.20;58.12
76285;BME280;71676;50.998;7.098;2024-01-30T14:47:31;102175.31;;;11.15;58.52
76285;BME280;71676;50.998;7.098;2024-01-30T14:49:58;102180.41;;;11.12;58.99
76285;BME280;71676;50.998;7.098;2024-01-30T14:52:25;102171.84;;;11.13;58.60
76285;BME280;71676;50.998;7.098;2024-01-30T14:54:51;102177.63;;;11.04;58.74